TRA2601 EHAM-LEIB
Flight info
| Callsign | TRA2601 |
|---|---|
| Flight time | 2h 19m |
| Altitude | 37000 |
| Route | LOPIK N852 LNO DCT SUTAL DCT GTQ DCT POGOL DCT LASAT DCT MOROK DCT GILIR DCT GEVEA DCT INCUS DCT BALSI DCT RETNO DCT TUPOX DCT MTG DCT DIVKO DCT VATIR N852 PIVUS Z237 SULID DCT DIMIB DCT POS |
| Aircraft | B738/M-SDE2E3FGHIRWXY/LB1 |
Departure
| Time | 2026-05-05 14:15 |
|---|---|
| Airport | Amsterdam Airport Schiphol (EHAM) |
Arrival
| Time | 2026-05-05 16:34 |
|---|---|
| Airport | Ibiza Airport (LEIB) |
| Time | Latitude | Longitude | Altitude | Speed | Heading |
|---|---|---|---|---|---|
| 2026-05-05 13:51 | 52.30466 | 4.76562 | -4 ft | 0 kts | 57° |
| 2026-05-05 13:52 | 52.30467 | 4.76568 | -4 ft | 0 kts | 58° |
| 2026-05-05 14:03 | 52.30467 | 4.76566 | 24 ft | 1 kts | 58° |
| 2026-05-05 14:03 | 52.30458 | 4.76544 | -4 ft | 3 kts | 64° |
| 2026-05-05 14:04 | 52.30452 | 4.76515 | -4 ft | 3 kts | 96° |
| 2026-05-05 14:04 | 52.30456 | 4.76496 | -4 ft | 1 kts | 135° |
| 2026-05-05 14:04 | 52.30457 | 4.76495 | -4 ft | 1 kts | 135° |
| 2026-05-05 14:06 | 52.30454 | 4.76499 | -4 ft | 5 kts | 141° |
| 2026-05-05 14:06 | 52.30405 | 4.76544 | -4 ft | 9 kts | 150° |
| 2026-05-05 14:07 | 52.30362 | 4.76606 | -4 ft | 8 kts | 119° |
| 2026-05-05 14:07 | 52.30342 | 4.76695 | -4 ft | 9 kts | 118° |
| 2026-05-05 14:07 | 52.30316 | 4.76815 | -4 ft | 12 kts | 76° |
| 2026-05-05 14:07 | 52.30359 | 4.76940 | -4 ft | 15 kts | 57° |
| 2026-05-05 14:08 | 52.30423 | 4.77107 | -4 ft | 22 kts | 56° |
| 2026-05-05 14:08 | 52.30505 | 4.77321 | -4 ft | 25 kts | 58° |
| 2026-05-05 14:08 | 52.30599 | 4.77545 | -4 ft | 24 kts | 38° |
| 2026-05-05 14:08 | 52.30753 | 4.77596 | -4 ft | 23 kts | 3° |
| 2026-05-05 14:09 | 52.30926 | 4.77612 | -4 ft | 32 kts | 3° |
| 2026-05-05 14:09 | 52.31141 | 4.77633 | -4 ft | 30 kts | 3° |
| 2026-05-05 14:09 | 52.31343 | 4.77652 | -4 ft | 28 kts | 2° |
| 2026-05-05 14:09 | 52.31515 | 4.77557 | -4 ft | 26 kts | 315° |
| 2026-05-05 14:10 | 52.31577 | 4.77295 | -4 ft | 25 kts | 267° |
| 2026-05-05 14:10 | 52.31566 | 4.76977 | -4 ft | 30 kts | 267° |
| 2026-05-05 14:10 | 52.31554 | 4.76607 | -4 ft | 34 kts | 267° |
| 2026-05-05 14:10 | 52.31539 | 4.76213 | -4 ft | 36 kts | 265° |
| 2026-05-05 14:11 | 52.31526 | 4.75791 | -4 ft | 38 kts | 266° |
| 2026-05-05 14:11 | 52.31510 | 4.75346 | -4 ft | 40 kts | 266° |
| 2026-05-05 14:11 | 52.31496 | 4.74914 | -4 ft | 33 kts | 266° |
| 2026-05-05 14:11 | 52.31483 | 4.74551 | -4 ft | 31 kts | 266° |
| 2026-05-05 14:12 | 52.31459 | 4.74217 | -4 ft | 29 kts | 237° |
| 2026-05-05 14:12 | 52.31281 | 4.74127 | -4 ft | 27 kts | 184° |
| 2026-05-05 14:12 | 52.31089 | 4.74108 | -4 ft | 31 kts | 182° |
| 2026-05-05 14:12 | 52.30875 | 4.74090 | -4 ft | 30 kts | 184° |
| 2026-05-05 14:13 | 52.30673 | 4.74070 | -4 ft | 28 kts | 183° |
| 2026-05-05 14:13 | 52.30483 | 4.74053 | -4 ft | 27 kts | 184° |
| 2026-05-05 14:13 | 52.30306 | 4.74016 | -4 ft | 25 kts | 204° |
| 2026-05-05 14:13 | 52.30189 | 4.73833 | -4 ft | 22 kts | 261° |
| 2026-05-05 14:14 | 52.30250 | 4.73737 | -5 ft | 12 kts | 2° |
| 2026-05-05 14:14 | 52.30331 | 4.73746 | -6 ft | 12 kts | 2° |
| 2026-05-05 14:14 | 52.30572 | 4.73768 | -5 ft | 73 kts | 4° |
| 2026-05-05 14:14 | 52.31315 | 4.73834 | -3 ft | 139 kts | 4° |
| 2026-05-05 14:15 | 52.32368 | 4.73930 | 523 ft | 149 kts | 6° |
| 2026-05-05 14:15 | 52.33368 | 4.74065 | 1480 ft | 148 kts | 8° |
| 2026-05-05 14:15 | 52.34397 | 4.74508 | 2123 ft | 166 kts | 25° |
| 2026-05-05 14:15 | 52.35554 | 4.75361 | 2492 ft | 197 kts | 25° |
| 2026-05-05 14:16 | 52.36800 | 4.76485 | 3020 ft | 206 kts | 44° |
| 2026-05-05 14:16 | 52.37475 | 4.78546 | 3692 ft | 216 kts | 82° |
| 2026-05-05 14:16 | 52.37303 | 4.81000 | 4417 ft | 226 kts | 102° |
| 2026-05-05 14:16 | 52.36623 | 4.83354 | 5157 ft | 234 kts | 132° |
| 2026-05-05 14:17 | 52.35220 | 4.84862 | 5695 ft | 252 kts | 165° |
| 2026-05-05 14:17 | 52.33436 | 4.85072 | 6243 ft | 267 kts | 182° |
| 2026-05-05 14:17 | 52.31554 | 4.84979 | 7029 ft | 273 kts | 182° |
| 2026-05-05 14:17 | 52.29642 | 4.84923 | 7879 ft | 277 kts | 177° |
| 2026-05-05 14:18 | 52.27803 | 4.85883 | 8687 ft | 282 kts | 148° |
| 2026-05-05 14:18 | 52.26164 | 4.87680 | 9569 ft | 286 kts | 145° |
| 2026-05-05 14:18 | 52.24513 | 4.89549 | 10281 ft | 294 kts | 146° |
| 2026-05-05 14:18 | 52.22754 | 4.91514 | 10514 ft | 320 kts | 146° |
| 2026-05-05 14:19 | 52.20838 | 4.93617 | 10707 ft | 344 kts | 146° |
| 2026-05-05 14:19 | 52.18775 | 4.95850 | 10876 ft | 367 kts | 147° |
| 2026-05-05 14:19 | 52.16590 | 4.98192 | 11223 ft | 382 kts | 147° |
| 2026-05-05 14:19 | 52.14346 | 5.00581 | 11848 ft | 388 kts | 147° |
| 2026-05-05 14:20 | 52.12080 | 5.02988 | 12586 ft | 391 kts | 147° |
| 2026-05-05 14:20 | 52.09724 | 5.05233 | 13280 ft | 395 kts | 154° |
| 2026-05-05 14:20 | 52.07134 | 5.06808 | 13891 ft | 400 kts | 164° |
| 2026-05-05 14:20 | 52.04436 | 5.07970 | 14583 ft | 402 kts | 165° |
| 2026-05-05 14:21 | 52.01731 | 5.09104 | 15278 ft | 403 kts | 165° |
| 2026-05-05 14:21 | 51.99010 | 5.10272 | 15946 ft | 405 kts | 165° |
| 2026-05-05 14:21 | 51.96284 | 5.11473 | 16587 ft | 407 kts | 165° |
| 2026-05-05 14:21 | 51.93542 | 5.12695 | 17225 ft | 410 kts | 165° |
| 2026-05-05 14:22 | 51.90785 | 5.13925 | 17870 ft | 412 kts | 165° |
| 2026-05-05 14:22 | 51.88009 | 5.15160 | 18451 ft | 414 kts | 165° |
| 2026-05-05 14:22 | 51.85224 | 5.16397 | 18977 ft | 417 kts | 165° |
| 2026-05-05 14:22 | 51.82413 | 5.17643 | 19464 ft | 420 kts | 165° |
| 2026-05-05 14:23 | 51.79585 | 5.18896 | 19983 ft | 422 kts | 165° |
| 2026-05-05 14:23 | 51.76743 | 5.20153 | 20487 ft | 425 kts | 165° |
| 2026-05-05 14:23 | 51.73930 | 5.21396 | 20940 ft | 428 kts | 165° |
| 2026-05-05 14:23 | 51.71050 | 5.22667 | 21411 ft | 431 kts | 165° |
| 2026-05-05 14:24 | 51.68151 | 5.23944 | 21877 ft | 433 kts | 165° |
| 2026-05-05 14:24 | 51.65233 | 5.25228 | 22335 ft | 436 kts | 165° |
| 2026-05-05 14:24 | 51.62304 | 5.26516 | 22758 ft | 438 kts | 165° |
| 2026-05-05 14:24 | 51.59356 | 5.27809 | 23213 ft | 440 kts | 165° |
| 2026-05-05 14:25 | 51.56392 | 5.29109 | 23598 ft | 443 kts | 165° |
| 2026-05-05 14:25 | 51.53411 | 5.30414 | 23974 ft | 445 kts | 165° |
| 2026-05-05 14:25 | 51.50421 | 5.31721 | 24385 ft | 445 kts | 165° |
| 2026-05-05 14:25 | 51.47430 | 5.33027 | 24793 ft | 446 kts | 165° |
| 2026-05-05 14:26 | 51.44435 | 5.34333 | 25164 ft | 447 kts | 166° |
| 2026-05-05 14:26 | 51.41432 | 5.35641 | 25500 ft | 448 kts | 166° |
| 2026-05-05 14:26 | 51.38415 | 5.36953 | 25825 ft | 450 kts | 166° |
| 2026-05-05 14:26 | 51.35390 | 5.38271 | 26141 ft | 451 kts | 166° |
| 2026-05-05 14:27 | 51.32353 | 5.39595 | 26465 ft | 453 kts | 166° |
| 2026-05-05 14:27 | 51.29313 | 5.40919 | 26795 ft | 454 kts | 166° |
| 2026-05-05 14:27 | 51.26262 | 5.42232 | 27235 ft | 453 kts | 167° |
| 2026-05-05 14:27 | 51.23199 | 5.43345 | 27734 ft | 449 kts | 169° |
| 2026-05-05 14:28 | 51.20149 | 5.44335 | 28263 ft | 447 kts | 170° |
| 2026-05-05 14:28 | 51.17111 | 5.45350 | 28700 ft | 446 kts | 168° |
| 2026-05-05 14:28 | 51.14106 | 5.46561 | 29098 ft | 446 kts | 166° |
| 2026-05-05 14:28 | 51.11161 | 5.47866 | 29502 ft | 445 kts | 166° |
| 2026-05-05 14:29 | 51.08150 | 5.49236 | 29935 ft | 444 kts | 166° |
| 2026-05-05 14:29 | 51.05192 | 5.50578 | 30311 ft | 442 kts | 166° |
| 2026-05-05 14:29 | 51.02272 | 5.51885 | 30683 ft | 440 kts | 166° |
| 2026-05-05 14:29 | 50.99325 | 5.53186 | 31061 ft | 439 kts | 166° |
| 2026-05-05 14:30 | 50.96389 | 5.54469 | 31429 ft | 437 kts | 166° |
| 2026-05-05 14:30 | 50.93458 | 5.55743 | 31795 ft | 436 kts | 166° |
| 2026-05-05 14:30 | 50.90541 | 5.57007 | 32165 ft | 434 kts | 166° |
| 2026-05-05 14:30 | 50.87633 | 5.58266 | 32547 ft | 432 kts | 166° |
| 2026-05-05 14:31 | 50.84738 | 5.59517 | 32923 ft | 430 kts | 166° |
| 2026-05-05 14:31 | 50.81859 | 5.60761 | 33298 ft | 428 kts | 166° |
| 2026-05-05 14:31 | 50.78993 | 5.61997 | 33677 ft | 426 kts | 166° |
| 2026-05-05 14:31 | 50.76136 | 5.63229 | 34009 ft | 424 kts | 167° |
| 2026-05-05 14:32 | 50.73290 | 5.64455 | 34242 ft | 425 kts | 167° |
| 2026-05-05 14:32 | 50.70432 | 5.65683 | 34409 ft | 426 kts | 167° |
| 2026-05-05 14:32 | 50.67574 | 5.66914 | 34622 ft | 427 kts | 166° |
| 2026-05-05 14:32 | 50.64717 | 5.68200 | 34858 ft | 427 kts | 166° |
| 2026-05-05 14:33 | 50.61865 | 5.69507 | 35076 ft | 427 kts | 166° |
| 2026-05-05 14:33 | 50.59016 | 5.70811 | 35287 ft | 427 kts | 165° |
| 2026-05-05 14:33 | 50.56194 | 5.72342 | 35491 ft | 429 kts | 161° |
| 2026-05-05 14:33 | 50.53416 | 5.74049 | 35713 ft | 429 kts | 160° |
| 2026-05-05 14:34 | 50.50648 | 5.75811 | 35914 ft | 430 kts | 160° |
| 2026-05-05 14:34 | 50.47876 | 5.77586 | 36081 ft | 431 kts | 160° |
| 2026-05-05 14:34 | 50.45101 | 5.79353 | 36268 ft | 431 kts | 160° |
| 2026-05-05 14:34 | 50.42318 | 5.81109 | 36464 ft | 431 kts | 160° |
| 2026-05-05 14:35 | 50.39534 | 5.82851 | 36665 ft | 431 kts | 160° |
| 2026-05-05 14:35 | 50.36740 | 5.84588 | 36821 ft | 432 kts | 160° |
| 2026-05-05 14:35 | 50.31132 | 5.88055 | 36841 ft | 434 kts | 160° |
| 2026-05-05 14:36 | 50.25571 | 5.91483 | 36838 ft | 431 kts | 160° |
| 2026-05-05 14:36 | 50.19998 | 5.94909 | 36835 ft | 429 kts | 160° |
| 2026-05-05 14:37 | 50.14449 | 5.98312 | 36849 ft | 428 kts | 160° |
| 2026-05-05 14:37 | 50.08899 | 6.01707 | 36833 ft | 428 kts | 160° |
| 2026-05-05 14:38 | 50.03360 | 6.05088 | 36834 ft | 428 kts | 160° |
| 2026-05-05 14:38 | 49.97810 | 6.08466 | 36837 ft | 429 kts | 160° |
| 2026-05-05 14:39 | 49.92241 | 6.11849 | 36832 ft | 430 kts | 160° |
| 2026-05-05 14:39 | 49.86663 | 6.15228 | 36843 ft | 431 kts | 160° |
| 2026-05-05 14:40 | 49.81059 | 6.18614 | 36837 ft | 433 kts | 160° |
| 2026-05-05 14:40 | 49.75444 | 6.21999 | 36831 ft | 434 kts | 160° |
| 2026-05-05 14:41 | 49.69815 | 6.25384 | 36829 ft | 435 kts | 160° |
| 2026-05-05 14:41 | 49.64176 | 6.28766 | 36832 ft | 435 kts | 160° |
| 2026-05-05 14:42 | 49.58530 | 6.32145 | 36828 ft | 435 kts | 160° |
| 2026-05-05 14:42 | 49.52923 | 6.35493 | 36832 ft | 435 kts | 160° |
| 2026-05-05 14:43 | 49.47281 | 6.38853 | 36835 ft | 435 kts | 160° |
| 2026-05-05 14:43 | 49.41696 | 6.42449 | 36834 ft | 436 kts | 157° |
| 2026-05-05 14:44 | 49.36172 | 6.46279 | 36836 ft | 436 kts | 157° |
| 2026-05-05 14:44 | 49.30641 | 6.50079 | 36840 ft | 435 kts | 158° |
| 2026-05-05 14:45 | 49.25099 | 6.53833 | 36837 ft | 435 kts | 158° |
| 2026-05-05 14:45 | 49.19555 | 6.57565 | 36834 ft | 435 kts | 158° |
| 2026-05-05 14:46 | 49.14013 | 6.61288 | 36837 ft | 435 kts | 158° |
| 2026-05-05 14:46 | 49.08473 | 6.65003 | 36834 ft | 435 kts | 158° |
| 2026-05-05 14:47 | 49.02924 | 6.68713 | 36840 ft | 435 kts | 158° |
| 2026-05-05 14:47 | 48.98149 | 6.71001 | 36846 ft | 433 kts | 171° |
| 2026-05-05 14:48 | 48.92148 | 6.71485 | 36854 ft | 433 kts | 182° |
| 2026-05-05 14:48 | 48.86102 | 6.71168 | 36848 ft | 435 kts | 182° |
| 2026-05-05 14:49 | 48.80039 | 6.70873 | 36832 ft | 436 kts | 182° |
| 2026-05-05 14:49 | 48.73977 | 6.70622 | 36830 ft | 435 kts | 182° |
| 2026-05-05 14:50 | 48.67938 | 6.70387 | 36835 ft | 434 kts | 182° |
| 2026-05-05 14:50 | 48.61906 | 6.70154 | 36836 ft | 433 kts | 182° |
| 2026-05-05 14:51 | 48.55874 | 6.69919 | 36838 ft | 434 kts | 182° |
| 2026-05-05 14:51 | 48.49829 | 6.69684 | 36820 ft | 435 kts | 182° |
| 2026-05-05 14:52 | 48.43835 | 6.69452 | 36829 ft | 433 kts | 182° |
| 2026-05-05 14:52 | 48.37818 | 6.69220 | 36843 ft | 432 kts | 182° |
| 2026-05-05 14:53 | 48.31812 | 6.68995 | 36834 ft | 431 kts | 182° |
| 2026-05-05 14:53 | 48.25818 | 6.68771 | 36833 ft | 431 kts | 182° |
| 2026-05-05 14:54 | 48.19829 | 6.68547 | 36837 ft | 430 kts | 182° |
| 2026-05-05 14:54 | 48.13844 | 6.68323 | 36833 ft | 430 kts | 182° |
| 2026-05-05 14:55 | 48.07855 | 6.68100 | 36844 ft | 430 kts | 182° |
| 2026-05-05 14:55 | 48.01867 | 6.67878 | 36846 ft | 431 kts | 182° |
| 2026-05-05 14:56 | 47.95871 | 6.67656 | 36862 ft | 432 kts | 182° |
| 2026-05-05 14:56 | 47.89836 | 6.67433 | 36850 ft | 435 kts | 182° |
| 2026-05-05 14:57 | 47.83783 | 6.67210 | 36844 ft | 435 kts | 182° |
| 2026-05-05 14:57 | 47.77740 | 6.66988 | 36851 ft | 434 kts | 182° |
| 2026-05-05 14:58 | 47.71715 | 6.66767 | 36858 ft | 433 kts | 182° |
| 2026-05-05 14:58 | 47.65700 | 6.66547 | 36852 ft | 432 kts | 182° |
| 2026-05-05 14:59 | 47.59688 | 6.66327 | 36855 ft | 432 kts | 182° |
| 2026-05-05 14:59 | 47.53680 | 6.66108 | 36856 ft | 432 kts | 182° |
| 2026-05-05 15:00 | 47.48688 | 6.65926 | 36856 ft | 432 kts | 182° |
| 2026-05-05 15:00 | 47.41699 | 6.65138 | 36855 ft | 430 kts | 197° |
| 2026-05-05 15:01 | 47.36292 | 6.61456 | 36855 ft | 431 kts | 216° |
| 2026-05-05 15:01 | 47.31710 | 6.55748 | 36866 ft | 432 kts | 220° |
| 2026-05-05 15:02 | 47.27168 | 6.49920 | 36875 ft | 433 kts | 220° |
| 2026-05-05 15:02 | 47.22588 | 6.44151 | 36877 ft | 434 kts | 219° |
| 2026-05-05 15:03 | 47.18008 | 6.38440 | 36875 ft | 434 kts | 219° |
| 2026-05-05 15:03 | 47.13397 | 6.32704 | 36877 ft | 434 kts | 219° |
| 2026-05-05 15:04 | 47.08714 | 6.27125 | 36868 ft | 433 kts | 212° |
| 2026-05-05 15:04 | 47.03196 | 6.23656 | 36878 ft | 434 kts | 195° |
| 2026-05-05 15:05 | 46.94189 | 6.22164 | 36882 ft | 435 kts | 186° |
| 2026-05-05 15:06 | 46.88160 | 6.21448 | 36880 ft | 435 kts | 187° |
| 2026-05-05 15:06 | 46.82133 | 6.20678 | 36886 ft | 434 kts | 187° |
| 2026-05-05 15:07 | 46.76120 | 6.19883 | 36881 ft | 434 kts | 187° |
| 2026-05-05 15:07 | 46.70118 | 6.19084 | 36890 ft | 433 kts | 187° |
| 2026-05-05 15:08 | 46.64113 | 6.18287 | 36888 ft | 433 kts | 187° |
| 2026-05-05 15:08 | 46.58110 | 6.17493 | 36896 ft | 433 kts | 187° |
| 2026-05-05 15:09 | 46.52110 | 6.16702 | 36899 ft | 433 kts | 187° |
| 2026-05-05 15:09 | 46.46151 | 6.15918 | 36901 ft | 433 kts | 188° |
| 2026-05-05 15:10 | 46.40155 | 6.15131 | 36911 ft | 433 kts | 188° |
| 2026-05-05 15:10 | 46.34156 | 6.14344 | 36910 ft | 433 kts | 188° |
| 2026-05-05 15:11 | 46.28156 | 6.13560 | 36914 ft | 433 kts | 188° |
| 2026-05-05 15:11 | 46.22170 | 6.12597 | 36906 ft | 432 kts | 191° |
| 2026-05-05 15:12 | 46.16239 | 6.11244 | 36914 ft | 431 kts | 192° |
| 2026-05-05 15:12 | 46.10313 | 6.09873 | 36909 ft | 431 kts | 192° |
| 2026-05-05 15:13 | 46.04390 | 6.08550 | 36917 ft | 430 kts | 192° |
| 2026-05-05 15:13 | 45.98431 | 6.07238 | 36924 ft | 430 kts | 192° |
| 2026-05-05 15:14 | 45.92557 | 6.05949 | 36908 ft | 429 kts | 192° |
| 2026-05-05 15:14 | 45.86658 | 6.04655 | 36905 ft | 428 kts | 192° |
| 2026-05-05 15:15 | 45.80786 | 6.03364 | 36915 ft | 427 kts | 192° |
| 2026-05-05 15:15 | 45.74922 | 6.02071 | 36887 ft | 425 kts | 192° |
| 2026-05-05 15:16 | 45.69075 | 6.00783 | 36880 ft | 425 kts | 192° |
| 2026-05-05 15:16 | 45.63231 | 5.99499 | 36893 ft | 424 kts | 192° |
| 2026-05-05 15:17 | 45.57395 | 5.98219 | 36883 ft | 425 kts | 192° |
| 2026-05-05 15:17 | 45.51559 | 5.96943 | 36887 ft | 424 kts | 192° |
| 2026-05-05 15:18 | 45.45747 | 5.95566 | 36893 ft | 422 kts | 195° |
| 2026-05-05 15:18 | 45.40007 | 5.93784 | 36880 ft | 422 kts | 196° |
| 2026-05-05 15:19 | 45.34287 | 5.91948 | 36867 ft | 420 kts | 196° |
| 2026-05-05 15:19 | 45.28596 | 5.90151 | 36905 ft | 419 kts | 196° |
| 2026-05-05 15:20 | 45.22900 | 5.88370 | 36891 ft | 419 kts | 196° |
| 2026-05-05 15:20 | 45.17209 | 5.86604 | 36899 ft | 419 kts | 196° |
| 2026-05-05 15:21 | 45.11514 | 5.84841 | 36902 ft | 419 kts | 196° |
| 2026-05-05 15:21 | 45.05821 | 5.83083 | 36912 ft | 418 kts | 196° |
| 2026-05-05 15:22 | 45.00150 | 5.81386 | 36977 ft | 413 kts | 196° |
| 2026-05-05 15:22 | 44.94505 | 5.79658 | 36909 ft | 415 kts | 197° |
| 2026-05-05 15:23 | 44.88864 | 5.77886 | 36905 ft | 415 kts | 197° |
| 2026-05-05 15:23 | 44.83220 | 5.76137 | 36913 ft | 415 kts | 197° |
| 2026-05-05 15:24 | 44.77575 | 5.74408 | 36907 ft | 415 kts | 197° |
| 2026-05-05 15:24 | 44.71938 | 5.72693 | 36908 ft | 414 kts | 197° |
| 2026-05-05 15:25 | 44.66305 | 5.70976 | 36911 ft | 414 kts | 197° |
| 2026-05-05 15:25 | 44.60712 | 5.69273 | 36900 ft | 414 kts | 197° |
| 2026-05-05 15:26 | 44.55083 | 5.67565 | 36906 ft | 415 kts | 197° |
| 2026-05-05 15:26 | 44.49446 | 5.65859 | 36914 ft | 414 kts | 197° |
| 2026-05-05 15:27 | 44.43818 | 5.64156 | 36910 ft | 413 kts | 197° |
| 2026-05-05 15:27 | 44.38208 | 5.62424 | 36912 ft | 412 kts | 199° |
| 2026-05-05 15:28 | 44.32873 | 5.59652 | 36922 ft | 409 kts | 205° |
| 2026-05-05 15:28 | 44.27587 | 5.56698 | 36914 ft | 409 kts | 205° |
| 2026-05-05 15:29 | 44.22293 | 5.53775 | 36913 ft | 410 kts | 205° |
| 2026-05-05 15:29 | 44.16982 | 5.50865 | 36907 ft | 410 kts | 205° |
| 2026-05-05 15:30 | 44.11663 | 5.47960 | 36911 ft | 411 kts | 205° |
| 2026-05-05 15:30 | 44.06335 | 5.45054 | 36909 ft | 411 kts | 205° |
| 2026-05-05 15:31 | 44.01006 | 5.42152 | 36903 ft | 411 kts | 205° |
| 2026-05-05 15:31 | 43.95683 | 5.39263 | 36916 ft | 411 kts | 205° |
| 2026-05-05 15:32 | 43.90351 | 5.36384 | 36905 ft | 411 kts | 205° |
| 2026-05-05 15:32 | 43.85025 | 5.33514 | 36899 ft | 411 kts | 205° |
| 2026-05-05 15:33 | 43.79694 | 5.30644 | 36899 ft | 411 kts | 205° |
| 2026-05-05 15:33 | 43.74367 | 5.27782 | 36903 ft | 411 kts | 205° |
| 2026-05-05 15:34 | 43.69072 | 5.24943 | 36909 ft | 410 kts | 205° |
| 2026-05-05 15:34 | 43.63752 | 5.22095 | 36901 ft | 410 kts | 205° |
| 2026-05-05 15:35 | 43.58432 | 5.19252 | 36913 ft | 410 kts | 205° |
| 2026-05-05 15:35 | 43.53114 | 5.16416 | 36914 ft | 410 kts | 205° |
| 2026-05-05 15:36 | 43.47797 | 5.13585 | 36909 ft | 409 kts | 205° |
| 2026-05-05 15:36 | 43.43385 | 5.11240 | 36914 ft | 409 kts | 205° |
| 2026-05-05 15:37 | 43.38158 | 5.08217 | 36904 ft | 405 kts | 212° |
| 2026-05-05 15:37 | 43.33496 | 5.03945 | 36932 ft | 403 kts | 217° |
| 2026-05-05 15:38 | 43.28897 | 4.99562 | 36921 ft | 402 kts | 217° |
| 2026-05-05 15:38 | 43.24285 | 4.95208 | 36922 ft | 402 kts | 217° |
| 2026-05-05 15:39 | 43.19668 | 4.90871 | 36915 ft | 402 kts | 217° |
| 2026-05-05 15:39 | 43.15048 | 4.86539 | 36916 ft | 402 kts | 217° |
| 2026-05-05 15:40 | 43.10429 | 4.82214 | 36916 ft | 402 kts | 217° |
| 2026-05-05 15:40 | 43.05805 | 4.77903 | 36915 ft | 402 kts | 216° |
| 2026-05-05 15:41 | 43.00940 | 4.74083 | 36916 ft | 404 kts | 212° |
| 2026-05-05 15:41 | 42.96016 | 4.70397 | 36912 ft | 403 kts | 212° |
| 2026-05-05 15:42 | 42.91103 | 4.66710 | 36911 ft | 403 kts | 212° |
| 2026-05-05 15:42 | 42.86202 | 4.63018 | 36911 ft | 402 kts | 212° |
| 2026-05-05 15:43 | 42.81309 | 4.59330 | 36910 ft | 402 kts | 212° |
| 2026-05-05 15:43 | 42.76421 | 4.55651 | 36913 ft | 401 kts | 212° |
| 2026-05-05 15:44 | 42.71533 | 4.51979 | 36910 ft | 401 kts | 212° |
| 2026-05-05 15:44 | 42.66654 | 4.48320 | 36906 ft | 401 kts | 212° |
| 2026-05-05 15:45 | 42.61775 | 4.44669 | 36905 ft | 400 kts | 212° |
| 2026-05-05 15:45 | 42.56902 | 4.41028 | 36906 ft | 400 kts | 212° |
| 2026-05-05 15:46 | 42.52026 | 4.37391 | 36904 ft | 400 kts | 212° |
| 2026-05-05 15:46 | 42.47156 | 4.33765 | 36908 ft | 399 kts | 212° |
| 2026-05-05 15:47 | 42.42284 | 4.30144 | 36903 ft | 399 kts | 212° |
| 2026-05-05 15:47 | 42.37450 | 4.26559 | 36901 ft | 399 kts | 212° |
| 2026-05-05 15:48 | 42.32582 | 4.22953 | 36901 ft | 399 kts | 212° |
| 2026-05-05 15:48 | 42.27717 | 4.19357 | 36902 ft | 399 kts | 212° |
| 2026-05-05 15:49 | 42.22850 | 4.15764 | 36898 ft | 398 kts | 212° |
| 2026-05-05 15:49 | 42.17986 | 4.12181 | 36898 ft | 398 kts | 212° |
| 2026-05-05 15:50 | 42.13122 | 4.08602 | 36896 ft | 398 kts | 212° |
| 2026-05-05 15:50 | 42.08255 | 4.05023 | 36897 ft | 399 kts | 213° |
| 2026-05-05 15:51 | 42.03387 | 4.01448 | 36890 ft | 399 kts | 213° |
| 2026-05-05 15:51 | 41.98513 | 3.97874 | 36892 ft | 399 kts | 213° |
| 2026-05-05 15:52 | 41.93634 | 3.94304 | 36890 ft | 399 kts | 213° |
| 2026-05-05 15:52 | 41.88710 | 3.90830 | 36889 ft | 401 kts | 211° |
| 2026-05-05 15:53 | 41.83716 | 3.87505 | 36890 ft | 401 kts | 211° |
| 2026-05-05 15:53 | 41.78715 | 3.84179 | 36888 ft | 401 kts | 211° |
| 2026-05-05 15:54 | 41.73724 | 3.80843 | 36891 ft | 401 kts | 211° |
| 2026-05-05 15:54 | 41.68734 | 3.77502 | 36891 ft | 401 kts | 211° |
| 2026-05-05 15:55 | 41.63742 | 3.74164 | 36890 ft | 401 kts | 211° |
| 2026-05-05 15:55 | 41.58749 | 3.70830 | 36894 ft | 401 kts | 211° |
| 2026-05-05 15:56 | 41.53759 | 3.67505 | 36890 ft | 401 kts | 211° |
| 2026-05-05 15:56 | 41.48772 | 3.64187 | 36890 ft | 400 kts | 211° |
| 2026-05-05 15:57 | 41.43788 | 3.60877 | 36887 ft | 400 kts | 211° |
| 2026-05-05 15:57 | 41.38808 | 3.57575 | 36890 ft | 400 kts | 211° |
| 2026-05-05 15:58 | 41.33827 | 3.54278 | 36889 ft | 399 kts | 211° |
| 2026-05-05 15:58 | 41.28853 | 3.50991 | 36887 ft | 399 kts | 211° |
| 2026-05-05 15:59 | 41.23911 | 3.47730 | 36894 ft | 399 kts | 211° |
| 2026-05-05 15:59 | 41.18889 | 3.44562 | 36883 ft | 402 kts | 206° |
| 2026-05-05 16:00 | 41.13413 | 3.42708 | 36874 ft | 409 kts | 197° |
| 2026-05-05 16:00 | 41.10610 | 3.41992 | 36577 ft | 410 kts | 197° |
| 2026-05-05 16:00 | 41.07817 | 3.41279 | 36326 ft | 406 kts | 197° |
| 2026-05-05 16:00 | 41.05063 | 3.40572 | 36056 ft | 401 kts | 198° |
| 2026-05-05 16:01 | 41.02334 | 3.39864 | 35805 ft | 399 kts | 198° |
| 2026-05-05 16:01 | 40.99615 | 3.39153 | 35214 ft | 399 kts | 198° |
| 2026-05-05 16:01 | 40.96899 | 3.38440 | 34612 ft | 397 kts | 198° |
| 2026-05-05 16:01 | 40.94185 | 3.37725 | 33906 ft | 398 kts | 198° |
| 2026-05-05 16:02 | 40.91473 | 3.37012 | 33117 ft | 398 kts | 198° |
| 2026-05-05 16:02 | 40.88761 | 3.36300 | 32381 ft | 397 kts | 198° |
| 2026-05-05 16:02 | 40.86056 | 3.35591 | 31633 ft | 397 kts | 198° |
| 2026-05-05 16:02 | 40.83347 | 3.34881 | 30849 ft | 398 kts | 198° |
| 2026-05-05 16:03 | 40.80629 | 3.34168 | 30055 ft | 399 kts | 198° |
| 2026-05-05 16:03 | 40.77900 | 3.33453 | 29126 ft | 400 kts | 198° |
| 2026-05-05 16:03 | 40.75172 | 3.32741 | 28224 ft | 399 kts | 198° |
| 2026-05-05 16:03 | 40.72449 | 3.32031 | 27314 ft | 400 kts | 197° |
| 2026-05-05 16:04 | 40.69684 | 3.31306 | 26376 ft | 412 kts | 197° |
| 2026-05-05 16:04 | 40.66826 | 3.30554 | 25483 ft | 423 kts | 197° |
| 2026-05-05 16:04 | 40.63948 | 3.29806 | 24776 ft | 419 kts | 197° |
| 2026-05-05 16:04 | 40.61101 | 3.29072 | 24067 ft | 414 kts | 197° |
| 2026-05-05 16:05 | 40.58289 | 3.28347 | 23346 ft | 410 kts | 197° |
| 2026-05-05 16:05 | 40.55506 | 3.27628 | 22527 ft | 406 kts | 197° |
| 2026-05-05 16:05 | 40.52755 | 3.26915 | 21821 ft | 400 kts | 197° |
| 2026-05-05 16:05 | 40.50041 | 3.26212 | 21108 ft | 395 kts | 197° |
| 2026-05-05 16:06 | 40.47359 | 3.25517 | 20426 ft | 391 kts | 196° |
| 2026-05-05 16:06 | 40.44699 | 3.24827 | 19748 ft | 388 kts | 196° |
| 2026-05-05 16:06 | 40.42066 | 3.24144 | 19084 ft | 385 kts | 196° |
| 2026-05-05 16:06 | 40.39445 | 3.23466 | 18422 ft | 382 kts | 196° |
| 2026-05-05 16:07 | 40.36842 | 3.22793 | 17686 ft | 381 kts | 195° |
| 2026-05-05 16:07 | 40.34251 | 3.22124 | 16957 ft | 378 kts | 195° |
| 2026-05-05 16:07 | 40.31678 | 3.21461 | 16201 ft | 377 kts | 195° |
| 2026-05-05 16:07 | 40.29107 | 3.20801 | 15482 ft | 376 kts | 195° |
| 2026-05-05 16:08 | 40.26560 | 3.20148 | 15126 ft | 368 kts | 194° |
| 2026-05-05 16:08 | 40.24094 | 3.19518 | 15000 ft | 367 kts | 195° |
| 2026-05-05 16:08 | 40.21628 | 3.18887 | 14903 ft | 354 kts | 195° |
| 2026-05-05 16:08 | 40.19211 | 3.18271 | 14595 ft | 346 kts | 195° |
| 2026-05-05 16:09 | 40.16895 | 3.17678 | 14093 ft | 343 kts | 194° |
| 2026-05-05 16:09 | 40.14528 | 3.16985 | 13423 ft | 344 kts | 201° |
| 2026-05-05 16:09 | 40.12425 | 3.15707 | 13219 ft | 340 kts | 212° |
| 2026-05-05 16:09 | 40.10430 | 3.13861 | 12982 ft | 363 kts | 222° |
| 2026-05-05 16:10 | 40.08598 | 3.11546 | 12732 ft | 369 kts | 226° |
| 2026-05-05 16:10 | 40.06799 | 3.09156 | 12464 ft | 369 kts | 226° |
| 2026-05-05 16:10 | 40.05015 | 3.06764 | 12202 ft | 367 kts | 226° |
| 2026-05-05 16:10 | 40.03237 | 3.04382 | 11981 ft | 367 kts | 226° |
| 2026-05-05 16:11 | 40.01428 | 3.01969 | 11915 ft | 368 kts | 226° |
| 2026-05-05 16:11 | 39.96095 | 2.94914 | 11892 ft | 365 kts | 226° |
| 2026-05-05 16:12 | 39.94307 | 2.92562 | 11891 ft | 365 kts | 226° |
| 2026-05-05 16:12 | 39.90735 | 2.87871 | 11896 ft | 364 kts | 226° |
| 2026-05-05 16:13 | 39.85373 | 2.80848 | 11889 ft | 365 kts | 226° |
| 2026-05-05 16:13 | 39.83582 | 2.78505 | 11899 ft | 365 kts | 225° |
| 2026-05-05 16:13 | 39.81792 | 2.76166 | 11894 ft | 365 kts | 226° |
| 2026-05-05 16:14 | 39.78203 | 2.71482 | 11908 ft | 367 kts | 226° |
| 2026-05-05 16:14 | 39.74604 | 2.66791 | 11907 ft | 366 kts | 226° |
| 2026-05-05 16:15 | 39.71006 | 2.62110 | 11912 ft | 366 kts | 226° |
| 2026-05-05 16:15 | 39.67405 | 2.57432 | 11904 ft | 366 kts | 226° |
| 2026-05-05 16:16 | 39.63807 | 2.52765 | 11912 ft | 366 kts | 226° |
| 2026-05-05 16:16 | 39.60207 | 2.48102 | 11897 ft | 366 kts | 226° |
| 2026-05-05 16:17 | 39.56636 | 2.43486 | 11378 ft | 362 kts | 226° |
| 2026-05-05 16:17 | 39.54848 | 2.41175 | 11132 ft | 364 kts | 226° |
| 2026-05-05 16:18 | 39.51276 | 2.36567 | 10643 ft | 361 kts | 225° |
| 2026-05-05 16:18 | 39.49498 | 2.34277 | 10399 ft | 360 kts | 226° |
| 2026-05-05 16:18 | 39.45956 | 2.29717 | 9920 ft | 359 kts | 226° |
| 2026-05-05 16:19 | 39.44190 | 2.27447 | 9667 ft | 354 kts | 225° |
| 2026-05-05 16:19 | 39.42472 | 2.25240 | 9390 ft | 342 kts | 225° |
| 2026-05-05 16:19 | 39.39214 | 2.21062 | 8859 ft | 319 kts | 226° |
| 2026-05-05 16:20 | 39.36031 | 2.16980 | 8366 ft | 330 kts | 226° |
| 2026-05-05 16:20 | 39.32843 | 2.12901 | 7844 ft | 313 kts | 226° |
| 2026-05-05 16:21 | 39.29838 | 2.09062 | 7330 ft | 296 kts | 226° |
| 2026-05-05 16:22 | 39.25602 | 2.03655 | 6591 ft | 276 kts | 226° |
| 2026-05-05 16:22 | 39.22916 | 2.00233 | 6100 ft | 267 kts | 226° |
| 2026-05-05 16:23 | 39.20313 | 1.96918 | 5589 ft | 259 kts | 226° |
| 2026-05-05 16:23 | 39.19038 | 1.95296 | 5332 ft | 256 kts | 227° |
| 2026-05-05 16:23 | 39.16534 | 1.92113 | 4832 ft | 250 kts | 227° |
| 2026-05-05 16:24 | 39.15718 | 1.91077 | 4667 ft | 248 kts | 227° |
| 2026-05-05 16:24 | 39.14499 | 1.89528 | 4476 ft | 241 kts | 227° |
| 2026-05-05 16:24 | 39.12206 | 1.86622 | 3984 ft | 221 kts | 226° |
| 2026-05-05 16:25 | 39.11137 | 1.85266 | 3743 ft | 211 kts | 226° |
| 2026-05-05 16:25 | 39.09050 | 1.82619 | 3238 ft | 209 kts | 227° |
| 2026-05-05 16:25 | 39.08014 | 1.81306 | 3041 ft | 209 kts | 227° |
| 2026-05-05 16:26 | 39.05921 | 1.78655 | 2975 ft | 209 kts | 226° |
| 2026-05-05 16:26 | 39.03854 | 1.76045 | 2974 ft | 209 kts | 226° |
| 2026-05-05 16:27 | 39.02833 | 1.74733 | 2975 ft | 207 kts | 230° |
| 2026-05-05 16:27 | 39.02059 | 1.73186 | 2983 ft | 205 kts | 243° |
| 2026-05-05 16:27 | 39.01399 | 1.71553 | 2978 ft | 206 kts | 244° |
| 2026-05-05 16:27 | 39.00740 | 1.69921 | 2982 ft | 206 kts | 243° |
| 2026-05-05 16:28 | 39.00075 | 1.68294 | 2976 ft | 206 kts | 243° |
| 2026-05-05 16:28 | 38.99407 | 1.66667 | 2976 ft | 205 kts | 243° |
| 2026-05-05 16:28 | 38.98737 | 1.65045 | 2983 ft | 206 kts | 242° |
| 2026-05-05 16:28 | 38.98056 | 1.63421 | 2981 ft | 206 kts | 242° |
| 2026-05-05 16:29 | 38.97381 | 1.61794 | 2992 ft | 207 kts | 243° |
| 2026-05-05 16:29 | 38.96704 | 1.60154 | 2986 ft | 206 kts | 243° |
| 2026-05-05 16:29 | 38.96057 | 1.58582 | 2973 ft | 197 kts | 243° |
| 2026-05-05 16:29 | 38.95435 | 1.57046 | 2751 ft | 192 kts | 243° |
| 2026-05-05 16:30 | 38.94829 | 1.55564 | 2576 ft | 184 kts | 242° |
| 2026-05-05 16:30 | 38.94241 | 1.54140 | 2454 ft | 174 kts | 242° |
| 2026-05-05 16:30 | 38.93695 | 1.52821 | 2265 ft | 160 kts | 242° |
| 2026-05-05 16:30 | 38.93186 | 1.51593 | 2127 ft | 153 kts | 241° |
| 2026-05-05 16:31 | 38.92684 | 1.50379 | 2028 ft | 156 kts | 242° |
| 2026-05-05 16:31 | 38.92171 | 1.49139 | 1830 ft | 157 kts | 240° |
| 2026-05-05 16:31 | 38.91664 | 1.47912 | 1630 ft | 152 kts | 240° |
| 2026-05-05 16:31 | 38.91180 | 1.46745 | 1452 ft | 142 kts | 241° |
| 2026-05-05 16:32 | 38.90730 | 1.45652 | 1233 ft | 135 kts | 240° |
| 2026-05-05 16:32 | 38.90284 | 1.44566 | 1087 ft | 140 kts | 240° |
| 2026-05-05 16:32 | 38.89830 | 1.43456 | 885 ft | 140 kts | 240° |
| 2026-05-05 16:32 | 38.89376 | 1.42359 | 665 ft | 138 kts | 240° |
| 2026-05-05 16:33 | 38.88925 | 1.41271 | 493 ft | 140 kts | 239° |
| 2026-05-05 16:33 | 38.88458 | 1.40149 | 339 ft | 144 kts | 241° |
| 2026-05-05 16:33 | 38.87998 | 1.39026 | 125 ft | 137 kts | 240° |
| 2026-05-05 16:33 | 38.87568 | 1.38004 | 18 ft | 121 kts | 241° |
| 2026-05-05 16:34 | 38.87242 | 1.37213 | 19 ft | 79 kts | 242° |
| 2026-05-05 16:34 | 38.87047 | 1.36741 | 19 ft | 50 kts | 242° |
| 2026-05-05 16:34 | 38.86913 | 1.36423 | 17 ft | 21 kts | 243° |
| 2026-05-05 16:34 | 38.86886 | 1.36294 | 16 ft | 13 kts | 294° |
| 2026-05-05 16:35 | 38.86894 | 1.36279 | 16 ft | 4 kts | 307° |
| 2026-05-05 16:35 | 38.86966 | 1.36227 | 9 ft | 16 kts | 336° |
| 2026-05-05 16:35 | 38.87019 | 1.36226 | 8 ft | 5 kts | 44° |
| 2026-05-05 16:35 | 38.87039 | 1.36267 | 8 ft | 7 kts | 60° |
| 2026-05-05 16:36 | 38.87085 | 1.36376 | 8 ft | 17 kts | 63° |
| 2026-05-05 16:36 | 38.87139 | 1.36506 | 9 ft | 16 kts | 61° |
| 2026-05-05 16:36 | 38.87192 | 1.36631 | 10 ft | 16 kts | 63° |
| 2026-05-05 16:36 | 38.87248 | 1.36771 | 9 ft | 19 kts | 62° |
| 2026-05-05 16:37 | 38.87303 | 1.36849 | 8 ft | 6 kts | 7° |
| 2026-05-05 16:37 | 38.87341 | 1.36830 | 8 ft | 6 kts | 331° |
| 2026-05-05 16:37 | 38.87379 | 1.36805 | 8 ft | 6 kts | 333° |
| 2026-05-05 16:37 | 38.87417 | 1.36781 | 8 ft | 6 kts | 340° |
| 2026-05-05 16:38 | 38.87460 | 1.36781 | 8 ft | 6 kts | 13° |
| 2026-05-05 16:38 | 38.87500 | 1.36796 | 8 ft | 6 kts | 16° |
| 2026-05-05 16:38 | 38.87513 | 1.36801 | 8 ft | 0 kts | 16° |